createdAt,value
2019-01-06T10:29:14.258Z,3.03
2019-01-06T10:33:49.456Z,2.70
2019-01-06T10:38:23.047Z,4.60
2019-01-06T10:42:58.261Z,2.60
2019-01-06T10:47:25.570Z,2.40
2019-01-06T10:52:01.392Z,4.17
2019-01-06T10:56:19.710Z,2.10
2019-01-06T11:00:44.168Z,2.47
2019-01-06T11:05:02.472Z,5.47
2019-01-06T11:09:23.805Z,3.00
2019-01-06T11:13:59.040Z,2.77
2019-01-06T11:18:34.249Z,4.10
2019-01-06T11:22:52.626Z,5.33
2019-01-06T11:27:17.063Z,2.50
2019-01-06T11:31:44.377Z,3.30
2019-01-06T11:36:18.024Z,3.07
2019-01-06T11:40:36.362Z,4.67
2019-01-06T11:45:06.622Z,2.00
2019-01-06T11:49:24.985Z,1.77
2019-01-06T11:54:00.230Z,14.33
2019-01-06T11:58:24.580Z,14.50
2019-01-06T12:02:52.079Z,5.60
2019-01-06T12:07:27.425Z,3.53
2019-01-06T12:11:51.566Z,3.03
2019-01-06T12:16:25.062Z,2.73
2019-01-06T12:20:55.982Z,4.27
2019-01-06T12:25:23.365Z,4.73
2019-01-06T12:29:44.719Z,3.90
2019-01-06T12:34:12.286Z,3.63
2019-01-06T12:38:30.636Z,4.73
2019-01-06T12:42:49.318Z,4.73
2019-01-06T12:47:10.602Z,5.37
2019-01-06T12:51:43.408Z,5.20
2019-01-06T12:56:16.282Z,4.77
2019-01-06T13:00:40.611Z,4.07
2019-01-06T13:05:05.277Z,2.63
2019-01-06T13:09:29.936Z,1.50
2019-01-06T13:13:51.292Z,5.63
2019-01-06T13:18:26.643Z,22.03
2019-01-06T13:22:50.865Z,2.53
2019-01-06T13:31:55.470Z,5.33
2019-01-06T13:36:17.135Z,3.20
2019-01-06T13:40:58.331Z,2.57
2019-01-06T13:45:24.174Z,3.50
2019-01-06T13:49:58.996Z,4.67
2019-01-06T13:54:34.119Z,8.27
2019-01-06T13:58:55.435Z,8.13
2019-01-06T14:03:30.846Z,18.67
2019-01-06T14:07:52.100Z,9.50
2019-01-06T14:12:19.900Z,8.30
2019-01-06T14:16:44.453Z,6.47
2019-01-06T14:21:08.581Z,6.97
2019-01-06T14:25:29.708Z,6.10
2019-01-06T14:29:48.066Z,6.40
2019-01-06T14:39:00.896Z,6.47
2019-01-06T14:48:18.104Z,9.97
2019-01-06T14:52:41.157Z,11.93
2019-01-06T14:57:16.273Z,10.67
2019-01-06T15:02:01.547Z,9.10
2019-01-06T15:06:34.707Z,7.83
2019-01-06T15:54:11.223Z,8.50
2019-01-06T15:58:46.122Z,10.40
2019-01-06T16:03:20.799Z,13.80
2019-01-06T16:07:56.155Z,13.93
2019-01-06T16:12:23.433Z,17.30
2019-01-06T16:16:41.717Z,16.40
2019-01-06T16:21:21.468Z,20.40
2019-01-06T16:25:39.799Z,17.17
2019-01-06T16:30:01.126Z,15.93
2019-01-06T16:34:22.421Z,16.87
2019-01-06T16:38:58.429Z,17.17
2019-01-06T16:43:34.835Z,22.10
2019-01-06T16:47:59.464Z,19.07
2019-01-06T16:52:17.805Z,16.23
2019-01-06T16:56:42.877Z,14.40
2019-01-06T17:01:06.760Z,15.07
2019-01-06T17:05:31.240Z,17.67
2019-01-06T17:09:52.628Z,17.30
2019-01-06T17:14:27.447Z,17.60
2019-01-06T17:18:52.566Z,19.87
2019-01-06T17:23:11.004Z,16.30
2019-01-06T17:27:29.631Z,17.43
2019-01-06T17:32:04.444Z,30.53
2019-01-06T17:36:28.951Z,18.93
2019-01-06T17:41:02.603Z,29.13
2019-01-06T17:45:32.925Z,27.03
2019-01-06T17:49:53.991Z,22.03
2019-01-06T17:54:24.646Z,26.80
2019-01-06T17:58:59.681Z,21.87
2019-01-06T18:03:27.089Z,24.67
2019-01-06T18:07:57.640Z,31.30
2019-01-06T18:12:22.041Z,34.07
2019-01-06T18:16:40.433Z,34.53
2019-01-06T18:21:07.612Z,36.80
2019-01-06T18:25:25.956Z,39.13
2019-01-06T18:29:56.352Z,35.80
2019-01-06T18:34:18.089Z,29.07
2019-01-06T18:38:53.171Z,32.10
2019-01-06T18:43:28.664Z,28.37
2019-01-06T18:48:05.199Z,39.07
2019-01-06T18:52:29.843Z,31.80
2019-01-06T18:56:48.368Z,28.80
2019-01-06T19:01:23.437Z,31.37
2019-01-06T19:05:53.722Z,35.10
2019-01-06T19:10:35.557Z,40.40
2019-01-06T19:14:58.909Z,27.17
2019-01-06T19:19:20.463Z,28.87
2019-01-06T19:23:55.472Z,37.03
2019-01-06T19:28:13.865Z,37.43
2019-01-06T19:32:40.398Z,36.73
2019-01-06T19:37:16.900Z,33.53
2019-01-06T19:41:53.502Z,38.47
2019-01-06T19:46:15.758Z,34.73
2019-01-06T19:50:52.554Z,43.60
2019-01-06T19:55:27.696Z,35.23
2019-01-06T20:00:06.366Z,33.13
2019-01-06T20:04:27.983Z,31.83
2019-01-06T20:08:52.398Z,43.60
2019-01-06T20:13:13.902Z,32.30
2019-01-06T20:17:50.590Z,35.73
2019-01-06T20:22:11.963Z,32.57
2019-01-06T20:26:48.159Z,38.13
2019-01-06T20:31:08.422Z,42.10
2019-01-06T20:35:36.204Z,33.67
2019-01-06T20:39:59.153Z,42.10
2019-01-06T20:44:35.229Z,46.87
2019-01-06T20:49:00.115Z,35.00
2019-01-06T20:53:21.619Z,42.33
2019-01-06T20:57:46.367Z,41.87
2019-01-06T21:02:09.450Z,55.10
2019-01-06T21:06:27.778Z,33.67
2019-01-06T21:10:57.914Z,39.13
2019-01-06T21:15:33.078Z,40.57
2019-01-06T21:20:07.928Z,47.30
2019-01-06T21:24:35.465Z,39.27
2019-01-06T21:28:56.817Z,51.20
2019-01-06T21:33:24.271Z,69.00
2019-01-06T21:37:46.037Z,58.40
2019-01-06T21:42:04.678Z,45.20
2019-01-06T21:46:23.041Z,46.40
2019-01-06T21:50:41.715Z,36.53
2019-01-06T21:55:16.980Z,42.37
2019-01-06T21:59:35.392Z,36.80
2019-01-06T22:03:54.053Z,65.90
2019-01-06T22:08:28.614Z,51.60
2019-01-06T22:12:56.127Z,38.10
2019-01-06T22:17:14.771Z,33.17
2019-01-06T22:21:33.113Z,44.20
2019-01-06T22:25:54.236Z,45.97
2019-01-06T22:30:12.811Z,39.83
2019-01-06T22:34:47.962Z,39.23
2019-01-06T22:39:09.602Z,51.70
2019-01-06T22:43:36.985Z,28.50
2019-01-06T22:48:11.989Z,42.23
2019-01-06T22:52:42.667Z,26.83
2019-01-06T22:57:04.047Z,30.73
2019-01-06T23:01:22.374Z,25.37
2019-01-06T23:05:59.090Z,31.33
2019-01-06T23:10:23.543Z,33.03
2019-01-06T23:14:47.971Z,34.57
2019-01-06T23:19:22.799Z,37.13
2019-01-06T23:23:53.341Z,40.03
2019-01-06T23:28:11.747Z,49.90
2019-01-06T23:32:30.140Z,54.50
2019-01-06T23:36:55.171Z,34.87
2019-01-06T23:41:30.961Z,42.10
2019-01-06T23:45:58.511Z,23.27
2019-01-06T23:50:32.210Z,51.60
2019-01-06T23:55:07.253Z,28.07
2019-01-06T23:59:25.683Z,40.67
